Terminal Aerodrome Forecast
Issued by NWS Goodland, KS

Home | Current Version | Previous Version | Text Only | Print | Product List | Glossary On
Versions: 1 2 3 4 5 6 7 8 9 10 11 12 13 14 15 16
000
FTUS43 KGLD 101120
TAFGLD
TAF
KGLD 101120Z 1012/1112 29013KT P6SM SKC
     FM101800 33014G20KT P6SM SKC
     FM102200 32011KT P6SM SKC
     FM110100 28008KT P6SM SKC
     FM111100 30012KT P6SM SKC=

USA.gov is the U.S. government's official web portal to all federal, state and local government web resources and services.